sensor_id;sensor_type;location;lat;lon;timestamp;temperature;humidity
43679;DHT22;29279;50.858;4.392;2022-11-21T00:01:23;8.40;99.90
43679;DHT22;29279;50.858;4.392;2022-11-21T00:03:49;8.30;99.90
43679;DHT22;29279;50.858;4.392;2022-11-21T00:06:15;8.30;99.90
43679;DHT22;29279;50.858;4.392;2022-11-21T00:08:41;8.30;99.90
43679;DHT22;29279;50.858;4.392;2022-11-21T00:11:06;8.40;99.90
43679;DHT22;29279;50.858;4.392;2022-11-21T00:13:35;8.50;99.90
43679;DHT22;29279;50.858;4.392;2022-11-21T00:16:03;8.60;99.90
43679;DHT22;29279;50.858;4.392;2022-11-21T00:18:29;8.50;99.90
43679;DHT22;29279;50.858;4.392;2022-11-21T00:20:55;8.50;99.90
43679;DHT22;29279;50.858;4.392;2022-11-21T00:23:20;8.40;99.90
43679;DHT22;29279;50.858;4.392;2022-11-21T00:25:46;8.30;99.90
43679;DHT22;29279;50.858;4.392;2022-11-21T00:28:11;8.20;99.90
43679;DHT22;29279;50.858;4.392;2022-11-21T00:30:37;8.10;99.90
43679;DHT22;29279;50.858;4.392;2022-11-21T00:33:03;8.00;99.90
43679;DHT22;29279;50.858;4.392;2022-11-21T00:35:29;8.00;99.90
43679;DHT22;29279;50.858;4.392;2022-11-21T00:37:55;8.00;99.90
43679;DHT22;29279;50.858;4.392;2022-11-21T00:40:21;7.90;99.90
43679;DHT22;29279;50.858;4.392;2022-11-21T00:42:46;7.70;99.90
43679;DHT22;29279;50.858;4.392;2022-11-21T00:45:12;7.80;99.90
43679;DHT22;29279;50.858;4.392;2022-11-21T00:47:38;7.70;99.90
43679;DHT22;29279;50.858;4.392;2022-11-21T00:50:04;7.80;99.90
43679;DHT22;29279;50.858;4.392;2022-11-21T00:52:29;7.70;99.90
43679;DHT22;29279;50.858;4.392;2022-11-21T00:54:55;7.80;99.90
43679;DHT22;29279;50.858;4.392;2022-11-21T00:57:21;7.70;99.90
43679;DHT22;29279;50.858;4.392;2022-11-21T00:59:46;7.70;99.90
43679;DHT22;29279;50.858;4.392;2022-11-21T01:02:12;7.70;99.90
43679;DHT22;29279;50.858;4.392;2022-11-21T01:04:38;7.80;99.90
43679;DHT22;29279;50.858;4.392;2022-11-21T01:07:04;7.80;99.90
43679;DHT22;29279;50.858;4.392;2022-11-21T01:09:29;7.90;99.90
43679;DHT22;29279;50.858;4.392;2022-11-21T01:11:55;8.00;99.90
43679;DHT22;29279;50.858;4.392;2022-11-21T01:14:21;8.10;99.90
43679;DHT22;29279;50.858;4.392;2022-11-21T01:16:47;7.90;99.90
43679;DHT22;29279;50.858;4.392;2022-11-21T01:19:12;7.90;99.90
43679;DHT22;29279;50.858;4.392;2022-11-21T01:21:38;7.90;99.90
43679;DHT22;29279;50.858;4.392;2022-11-21T01:24:03;7.80;99.90
43679;DHT22;29279;50.858;4.392;2022-11-21T01:26:30;7.70;99.90
43679;DHT22;29279;50.858;4.392;2022-11-21T01:29:00;7.60;99.90
43679;DHT22;29279;50.858;4.392;2022-11-21T01:31:28;7.50;99.90
43679;DHT22;29279;50.858;4.392;2022-11-21T01:33:55;7.50;99.90
43679;DHT22;29279;50.858;4.392;2022-11-21T01:36:24;7.50;99.90
43679;DHT22;29279;50.858;4.392;2022-11-21T01:38:52;7.50;99.90
43679;DHT22;29279;50.858;4.392;2022-11-21T01:41:24;7.60;99.90
43679;DHT22;29279;50.858;4.392;2022-11-21T01:43:51;7.70;99.90
43679;DHT22;29279;50.858;4.392;2022-11-21T01:46:18;7.70;99.90
43679;DHT22;29279;50.858;4.392;2022-11-21T01:48:47;7.60;99.90
43679;DHT22;29279;50.858;4.392;2022-11-21T01:54:22;7.70;99.90
43679;DHT22;29279;50.858;4.392;2022-11-21T01:57:00;7.80;99.90
43679;DHT22;29279;50.858;4.392;2022-11-21T01:59:52;7.80;99.90
43679;DHT22;29279;50.858;4.392;2022-11-21T02:02:23;8.00;99.90
43679;DHT22;29279;50.858;4.392;2022-11-21T02:04:50;8.00;99.90
43679;DHT22;29279;50.858;4.392;2022-11-21T02:07:18;8.00;99.90
43679;DHT22;29279;50.858;4.392;2022-11-21T02:09:50;8.10;99.90
43679;DHT22;29279;50.858;4.392;2022-11-21T02:12:27;8.00;99.90
43679;DHT22;29279;50.858;4.392;2022-11-21T02:14:54;7.90;99.90
43679;DHT22;29279;50.858;4.392;2022-11-21T02:17:20;8.00;99.90
43679;DHT22;29279;50.858;4.392;2022-11-21T02:25:33;8.10;99.90
43679;DHT22;29279;50.858;4.392;2022-11-21T02:28:05;8.10;99.90
43679;DHT22;29279;50.858;4.392;2022-11-21T02:30:33;8.00;99.90
43679;DHT22;29279;50.858;4.392;2022-11-21T02:32:59;7.90;99.90
43679;DHT22;29279;50.858;4.392;2022-11-21T02:35:25;7.90;99.90
43679;DHT22;29279;50.858;4.392;2022-11-21T02:38:04;7.90;99.90
43679;DHT22;29279;50.858;4.392;2022-11-21T02:40:38;7.90;99.90
43679;DHT22;29279;50.858;4.392;2022-11-21T02:43:12;7.90;99.90
43679;DHT22;29279;50.858;4.392;2022-11-21T02:45:41;7.70;99.90
43679;DHT22;29279;50.858;4.392;2022-11-21T02:48:07;7.70;99.90
43679;DHT22;29279;50.858;4.392;2022-11-21T02:50:42;7.70;99.90
43679;DHT22;29279;50.858;4.392;2022-11-21T02:53:12;7.70;99.90
43679;DHT22;29279;50.858;4.392;2022-11-21T02:55:38;7.60;99.90
43679;DHT22;29279;50.858;4.392;2022-11-21T02:58:04;7.40;99.90
43679;DHT22;29279;50.858;4.392;2022-11-21T03:00:31;7.40;99.90
43679;DHT22;29279;50.858;4.392;2022-11-21T03:02:56;7.40;99.90
43679;DHT22;29279;50.858;4.392;2022-11-21T03:05:22;7.40;99.90
43679;DHT22;29279;50.858;4.392;2022-11-21T03:07:48;7.40;99.90
43679;DHT22;29279;50.858;4.392;2022-11-21T03:10:14;7.30;99.90
43679;DHT22;29279;50.858;4.392;2022-11-21T03:12:41;7.30;99.90
43679;DHT22;29279;50.858;4.392;2022-11-21T03:15:10;7.40;99.90
43679;DHT22;29279;50.858;4.392;2022-11-21T03:17:36;7.60;99.90
43679;DHT22;29279;50.858;4.392;2022-11-21T03:20:02;7.60;99.90
43679;DHT22;29279;50.858;4.392;2022-11-21T03:22:28;7.60;99.90
43679;DHT22;29279;50.858;4.392;2022-11-21T03:24:54;7.60;99.90
43679;DHT22;29279;50.858;4.392;2022-11-21T03:27:19;7.50;99.90
43679;DHT22;29279;50.858;4.392;2022-11-21T03:29:45;7.40;99.90
43679;DHT22;29279;50.858;4.392;2022-11-21T03:32:11;7.40;99.90
43679;DHT22;29279;50.858;4.392;2022-11-21T03:34:36;7.30;99.90
43679;DHT22;29279;50.858;4.392;2022-11-21T03:37:02;7.20;99.90
43679;DHT22;29279;50.858;4.392;2022-11-21T03:39:28;7.20;99.90
43679;DHT22;29279;50.858;4.392;2022-11-21T03:41:54;7.20;99.90
43679;DHT22;29279;50.858;4.392;2022-11-21T03:44:20;7.20;99.90
43679;DHT22;29279;50.858;4.392;2022-11-21T03:46:46;7.20;99.90
43679;DHT22;29279;50.858;4.392;2022-11-21T03:49:12;7.20;99.90
43679;DHT22;29279;50.858;4.392;2022-11-21T03:51:39;7.10;99.90
43679;DHT22;29279;50.858;4.392;2022-11-21T03:54:05;7.00;99.90
43679;DHT22;29279;50.858;4.392;2022-11-21T03:56:31;7.00;99.90
43679;DHT22;29279;50.858;4.392;2022-11-21T03:58:57;7.00;99.90
43679;DHT22;29279;50.858;4.392;2022-11-21T04:01:23;7.00;99.90
43679;DHT22;29279;50.858;4.392;2022-11-21T04:03:49;7.00;99.90
43679;DHT22;29279;50.858;4.392;2022-11-21T04:06:17;7.00;99.90
43679;DHT22;29279;50.858;4.392;2022-11-21T04:08:43;7.10;99.90
43679;DHT22;29279;50.858;4.392;2022-11-21T04:11:09;7.00;99.90
43679;DHT22;29279;50.858;4.392;2022-11-21T04:13:34;6.90;99.90
43679;DHT22;29279;50.858;4.392;2022-11-21T04:16:00;7.00;99.90
43679;DHT22;29279;50.858;4.392;2022-11-21T04:18:26;7.00;99.90
43679;DHT22;29279;50.858;4.392;2022-11-21T04:20:56;7.00;99.90
43679;DHT22;29279;50.858;4.392;2022-11-21T04:23:25;7.00;99.90
43679;DHT22;29279;50.858;4.392;2022-11-21T04:25:51;7.00;99.90
43679;DHT22;29279;50.858;4.392;2022-11-21T04:28:17;7.10;99.90
43679;DHT22;29279;50.858;4.392;2022-11-21T04:30:43;7.00;99.90
43679;DHT22;29279;50.858;4.392;2022-11-21T04:33:13;7.00;99.90
43679;DHT22;29279;50.858;4.392;2022-11-21T04:35:39;7.00;99.90
43679;DHT22;29279;50.858;4.392;2022-11-21T04:38:06;6.90;99.90
43679;DHT22;29279;50.858;4.392;2022-11-21T04:40:34;6.80;99.90
43679;DHT22;29279;50.858;4.392;2022-11-21T04:43:02;6.80;99.90
43679;DHT22;29279;50.858;4.392;2022-11-21T04:45:28;6.80;99.90
43679;DHT22;29279;50.858;4.392;2022-11-21T04:47:53;6.80;99.90
43679;DHT22;29279;50.858;4.392;2022-11-21T04:50:20;6.90;99.90
43679;DHT22;29279;50.858;4.392;2022-11-21T04:52:50;7.00;99.90
43679;DHT22;29279;50.858;4.392;2022-11-21T04:55:16;7.00;99.90
43679;DHT22;29279;50.858;4.392;2022-11-21T04:57:41;6.90;99.90
43679;DHT22;29279;50.858;4.392;2022-11-21T05:00:08;6.80;99.90
43679;DHT22;29279;50.858;4.392;2022-11-21T05:02:33;6.80;99.90
43679;DHT22;29279;50.858;4.392;2022-11-21T05:04:59;6.80;99.90
43679;DHT22;29279;50.858;4.392;2022-11-21T05:07:25;6.70;99.90
43679;DHT22;29279;50.858;4.392;2022-11-21T05:09:50;6.60;99.90
43679;DHT22;29279;50.858;4.392;2022-11-21T05:12:16;6.50;99.90
43679;DHT22;29279;50.858;4.392;2022-11-21T05:15:00;6.50;99.90
43679;DHT22;29279;50.858;4.392;2022-11-21T05:17:29;6.40;99.90
43679;DHT22;29279;50.858;4.392;2022-11-21T05:19:55;6.40;99.90
43679;DHT22;29279;50.858;4.392;2022-11-21T05:22:20;6.40;99.90
43679;DHT22;29279;50.858;4.392;2022-11-21T05:24:46;6.50;99.90
43679;DHT22;29279;50.858;4.392;2022-11-21T05:27:12;6.60;99.90
43679;DHT22;29279;50.858;4.392;2022-11-21T05:29:37;6.60;99.90
43679;DHT22;29279;50.858;4.392;2022-11-21T05:32:03;6.60;99.90
43679;DHT22;29279;50.858;4.392;2022-11-21T05:34:29;6.50;99.90
43679;DHT22;29279;50.858;4.392;2022-11-21T05:36:54;6.50;99.90
43679;DHT22;29279;50.858;4.392;2022-11-21T05:39:23;6.40;99.90
43679;DHT22;29279;50.858;4.392;2022-11-21T05:41:49;6.40;99.90
43679;DHT22;29279;50.858;4.392;2022-11-21T05:44:15;6.30;99.90
43679;DHT22;29279;50.858;4.392;2022-11-21T05:46:41;6.30;99.90
43679;DHT22;29279;50.858;4.392;2022-11-21T05:49:07;6.30;99.90
43679;DHT22;29279;50.858;4.392;2022-11-21T05:51:33;6.30;99.90
43679;DHT22;29279;50.858;4.392;2022-11-21T05:53:59;6.20;99.90
43679;DHT22;29279;50.858;4.392;2022-11-21T05:56:25;6.30;99.90
43679;DHT22;29279;50.858;4.392;2022-11-21T05:58:53;6.20;99.90
43679;DHT22;29279;50.858;4.392;2022-11-21T06:01:19;6.30;99.90
43679;DHT22;29279;50.858;4.392;2022-11-21T06:04:05;6.30;99.90
43679;DHT22;29279;50.858;4.392;2022-11-21T06:06:31;6.30;99.90
43679;DHT22;29279;50.858;4.392;2022-11-21T06:08:57;6.40;99.90
43679;DHT22;29279;50.858;4.392;2022-11-21T06:11:23;6.40;99.90
43679;DHT22;29279;50.858;4.392;2022-11-21T06:13:49;6.40;99.90
43679;DHT22;29279;50.858;4.392;2022-11-21T06:16:16;6.50;99.90
43679;DHT22;29279;50.858;4.392;2022-11-21T06:18:44;6.50;99.90
43679;DHT22;29279;50.858;4.392;2022-11-21T06:21:15;6.60;99.90
43679;DHT22;29279;50.858;4.392;2022-11-21T06:23:42;6.50;99.90
43679;DHT22;29279;50.858;4.392;2022-11-21T06:26:11;6.60;99.90
43679;DHT22;29279;50.858;4.392;2022-11-21T06:28:39;6.40;99.90
43679;DHT22;29279;50.858;4.392;2022-11-21T06:31:06;6.30;99.90
43679;DHT22;29279;50.858;4.392;2022-11-21T06:33:33;6.30;99.90
43679;DHT22;29279;50.858;4.392;2022-11-21T06:36:03;6.20;99.90
43679;DHT22;29279;50.858;4.392;2022-11-21T06:38:30;6.20;99.90
43679;DHT22;29279;50.858;4.392;2022-11-21T06:40:55;6.20;99.90
43679;DHT22;29279;50.858;4.392;2022-11-21T06:43:21;6.30;99.90
43679;DHT22;29279;50.858;4.392;2022-11-21T06:45:47;6.20;99.90
43679;DHT22;29279;50.858;4.392;2022-11-21T06:48:12;6.20;99.90
43679;DHT22;29279;50.858;4.392;2022-11-21T06:50:38;6.20;99.90
43679;DHT22;29279;50.858;4.392;2022-11-21T06:53:04;6.20;99.90
43679;DHT22;29279;50.858;4.392;2022-11-21T06:55:30;6.20;99.90
43679;DHT22;29279;50.858;4.392;2022-11-21T06:57:57;6.30;99.90
43679;DHT22;29279;50.858;4.392;2022-11-21T07:00:24;6.30;99.90
43679;DHT22;29279;50.858;4.392;2022-11-21T07:02:50;6.40;99.90
43679;DHT22;29279;50.858;4.392;2022-11-21T07:05:15;6.30;99.90
43679;DHT22;29279;50.858;4.392;2022-11-21T07:07:41;6.30;99.90
43679;DHT22;29279;50.858;4.392;2022-11-21T07:10:07;6.30;99.90
43679;DHT22;29279;50.858;4.392;2022-11-21T07:12:34;6.40;99.90
43679;DHT22;29279;50.858;4.392;2022-11-21T07:15:18;6.50;99.90
43679;DHT22;29279;50.858;4.392;2022-11-21T07:17:43;6.60;99.90
43679;DHT22;29279;50.858;4.392;2022-11-21T07:20:10;6.60;99.90
43679;DHT22;29279;50.858;4.392;2022-11-21T07:22:35;6.80;99.90
43679;DHT22;29279;50.858;4.392;2022-11-21T07:25:01;6.80;99.90
43679;DHT22;29279;50.858;4.392;2022-11-21T07:27:27;6.80;99.90
43679;DHT22;29279;50.858;4.392;2022-11-21T07:29:52;6.80;99.90
43679;DHT22;29279;50.858;4.392;2022-11-21T07:32:18;7.00;99.90
43679;DHT22;29279;50.858;4.392;2022-11-21T07:34:44;7.30;99.90
43679;DHT22;29279;50.858;4.392;2022-11-21T07:37:09;7.30;99.90
43679;DHT22;29279;50.858;4.392;2022-11-21T07:39:35;7.50;99.90
43679;DHT22;29279;50.858;4.392;2022-11-21T07:42:01;7.80;99.90
43679;DHT22;29279;50.858;4.392;2022-11-21T07:44:26;8.20;99.90
43679;DHT22;29279;50.858;4.392;2022-11-21T07:46:55;8.80;99.90
43679;DHT22;29279;50.858;4.392;2022-11-21T07:49:21;9.10;99.90
43679;DHT22;29279;50.858;4.392;2022-11-21T07:51:48;9.60;99.90
43679;DHT22;29279;50.858;4.392;2022-11-21T07:54:14;10.00;99.90
43679;DHT22;29279;50.858;4.392;2022-11-21T07:56:40;10.30;99.90
43679;DHT22;29279;50.858;4.392;2022-11-21T07:59:06;10.70;99.90
43679;DHT22;29279;50.858;4.392;2022-11-21T08:01:31;11.10;99.90
43679;DHT22;29279;50.858;4.392;2022-11-21T08:03:58;11.50;99.90
43679;DHT22;29279;50.858;4.392;2022-11-21T08:06:24;11.60;99.90
43679;DHT22;29279;50.858;4.392;2022-11-21T08:08:53;11.20;99.90
43679;DHT22;29279;50.858;4.392;2022-11-21T08:11:19;11.20;99.90
43679;DHT22;29279;50.858;4.392;2022-11-21T08:13:45;11.00;99.90
43679;DHT22;29279;50.858;4.392;2022-11-21T08:16:10;11.00;99.90
43679;DHT22;29279;50.858;4.392;2022-11-21T08:18:36;11.20;99.90
43679;DHT22;29279;50.858;4.392;2022-11-21T08:21:02;10.90;99.90
43679;DHT22;29279;50.858;4.392;2022-11-21T08:23:30;10.90;99.90
43679;DHT22;29279;50.858;4.392;2022-11-21T08:25:56;10.70;99.90
43679;DHT22;29279;50.858;4.392;2022-11-21T08:28:22;10.50;99.90
43679;DHT22;29279;50.858;4.392;2022-11-21T08:30:48;10.10;99.90
43679;DHT22;29279;50.858;4.392;2022-11-21T08:33:14;9.70;99.90
43679;DHT22;29279;50.858;4.392;2022-11-21T08:35:40;9.90;99.90
43679;DHT22;29279;50.858;4.392;2022-11-21T08:38:07;10.30;99.90
43679;DHT22;29279;50.858;4.392;2022-11-21T08:40:34;10.50;99.90
43679;DHT22;29279;50.858;4.392;2022-11-21T08:43:08;10.60;99.90
43679;DHT22;29279;50.858;4.392;2022-11-21T08:45:35;11.30;99.90
43679;DHT22;29279;50.858;4.392;2022-11-21T08:48:00;11.40;99.90
43679;DHT22;29279;50.858;4.392;2022-11-21T08:50:26;11.40;99.90
43679;DHT22;29279;50.858;4.392;2022-11-21T08:53:00;11.20;99.90
43679;DHT22;29279;50.858;4.392;2022-11-21T08:55:26;11.20;99.90
43679;DHT22;29279;50.858;4.392;2022-11-21T08:57:52;11.10;99.90
43679;DHT22;29279;50.858;4.392;2022-11-21T09:00:17;11.00;99.90
43679;DHT22;29279;50.858;4.392;2022-11-21T09:02:43;11.00;99.90
43679;DHT22;29279;50.858;4.392;2022-11-21T09:05:09;10.90;99.90
43679;DHT22;29279;50.858;4.392;2022-11-21T09:07:35;11.00;99.90
43679;DHT22;29279;50.858;4.392;2022-11-21T09:10:00;11.40;99.90
43679;DHT22;29279;50.858;4.392;2022-11-21T09:12:26;11.60;99.90
43679;DHT22;29279;50.858;4.392;2022-11-21T09:14:52;11.50;99.90
43679;DHT22;29279;50.858;4.392;2022-11-21T09:17:36;11.40;99.90
43679;DHT22;29279;50.858;4.392;2022-11-21T09:20:20;11.50;99.90
43679;DHT22;29279;50.858;4.392;2022-11-21T09:22:46;11.90;99.90
43679;DHT22;29279;50.858;4.392;2022-11-21T09:25:11;12.20;99.90
43679;DHT22;29279;50.858;4.392;2022-11-21T09:27:37;12.40;99.90
43679;DHT22;29279;50.858;4.392;2022-11-21T09:30:03;12.60;99.90
43679;DHT22;29279;50.858;4.392;2022-11-21T09:32:29;13.00;99.90
43679;DHT22;29279;50.858;4.392;2022-11-21T09:34:54;13.40;99.90
43679;DHT22;29279;50.858;4.392;2022-11-21T09:37:20;13.60;99.90
43679;DHT22;29279;50.858;4.392;2022-11-21T09:39:46;13.70;99.90
43679;DHT22;29279;50.858;4.392;2022-11-21T09:42:34;13.80;99.90
43679;DHT22;29279;50.858;4.392;2022-11-21T09:47:56;14.00;99.90
43679;DHT22;29279;50.858;4.392;2022-11-21T09:50:34;14.30;99.90
43679;DHT22;29279;50.858;4.392;2022-11-21T09:53:31;14.30;99.90
43679;DHT22;29279;50.858;4.392;2022-11-21T09:58:38;14.60;99.90
43679;DHT22;29279;50.858;4.392;2022-11-21T10:01:12;14.70;99.90
43679;DHT22;29279;50.858;4.392;2022-11-21T10:03:44;14.50;99.90
43679;DHT22;29279;50.858;4.392;2022-11-21T10:06:19;14.20;99.90
43679;DHT22;29279;50.858;4.392;2022-11-21T10:17:20;12.10;99.90
43679;DHT22;29279;50.858;4.392;2022-11-21T10:25:37;10.00;99.90
43679;DHT22;29279;50.858;4.392;2022-11-21T10:28:08;9.60;99.90
43679;DHT22;29279;50.858;4.392;2022-11-21T10:30:41;9.50;99.90
43679;DHT22;29279;50.858;4.392;2022-11-21T10:33:19;9.10;99.90
43679;DHT22;29279;50.858;4.392;2022-11-21T10:35:51;9.00;99.90
43679;DHT22;29279;50.858;4.392;2022-11-21T10:41:01;8.70;99.90
43679;DHT22;29279;50.858;4.392;2022-11-21T10:46:18;8.50;99.90
43679;DHT22;29279;50.858;4.392;2022-11-21T10:48:59;8.50;99.90
43679;DHT22;29279;50.858;4.392;2022-11-21T10:57:27;8.80;99.90
43679;DHT22;29279;50.858;4.392;2022-11-21T10:59:59;8.80;99.90
43679;DHT22;29279;50.858;4.392;2022-11-21T11:02:26;8.80;99.90
43679;DHT22;29279;50.858;4.392;2022-11-21T11:05:19;8.70;99.90
43679;DHT22;29279;50.858;4.392;2022-11-21T11:11:13;8.80;99.90
43679;DHT22;29279;50.858;4.392;2022-11-21T11:13:20;8.80;99.90
43679;DHT22;29279;50.858;4.392;2022-11-21T11:16:04;8.80;99.90
43679;DHT22;29279;50.858;4.392;2022-11-21T11:18:32;8.80;99.90
43679;DHT22;29279;50.858;4.392;2022-11-21T11:21:15;9.00;99.90
43679;DHT22;29279;50.858;4.392;2022-11-21T11:23:41;9.00;99.90
43679;DHT22;29279;50.858;4.392;2022-11-21T11:26:28;9.00;99.90
43679;DHT22;29279;50.858;4.392;2022-11-21T11:29:17;9.00;99.90
43679;DHT22;29279;50.858;4.392;2022-11-21T11:34:35;8.90;99.90
43679;DHT22;29279;50.858;4.392;2022-11-21T11:39:43;9.20;99.90
43679;DHT22;29279;50.858;4.392;2022-11-21T11:42:28;9.40;99.90
43679;DHT22;29279;50.858;4.392;2022-11-21T11:45:15;9.30;99.90
43679;DHT22;29279;50.858;4.392;2022-11-21T11:48:07;9.20;99.90
43679;DHT22;29279;50.858;4.392;2022-11-21T11:50:51;9.30;99.90
43679;DHT22;29279;50.858;4.392;2022-11-21T11:53:34;9.30;99.90
43679;DHT22;29279;50.858;4.392;2022-11-21T11:56:29;9.40;99.90
43679;DHT22;29279;50.858;4.392;2022-11-21T11:59:20;9.30;99.90
43679;DHT22;29279;50.858;4.392;2022-11-21T12:01:58;9.30;99.90
43679;DHT22;29279;50.858;4.392;2022-11-21T12:04:28;9.20;99.90
43679;DHT22;29279;50.858;4.392;2022-11-21T12:07:02;9.20;99.90
43679;DHT22;29279;50.858;4.392;2022-11-21T12:12:09;9.30;99.90
43679;DHT22;29279;50.858;4.392;2022-11-21T12:23:35;9.20;99.90
43679;DHT22;29279;50.858;4.392;2022-11-21T12:26:37;9.40;99.90
43679;DHT22;29279;50.858;4.392;2022-11-21T12:40:42;9.60;99.90
43679;DHT22;29279;50.858;4.392;2022-11-21T12:46:18;9.60;99.90
43679;DHT22;29279;50.858;4.392;2022-11-21T12:52:06;9.60;99.90
43679;DHT22;29279;50.858;4.392;2022-11-21T12:58:02;9.90;99.90
43679;DHT22;29279;50.858;4.392;2022-11-21T13:00:57;9.90;99.90
43679;DHT22;29279;50.858;4.392;2022-11-21T13:03:38;10.10;99.90
43679;DHT22;29279;50.858;4.392;2022-11-21T13:06:32;10.10;99.90
43679;DHT22;29279;50.858;4.392;2022-11-21T13:08:59;10.10;99.90
43679;DHT22;29279;50.858;4.392;2022-11-21T13:14:48;10.00;99.90
43679;DHT22;29279;50.858;4.392;2022-11-21T13:27:36;10.00;99.90
43679;DHT22;29279;50.858;4.392;2022-11-21T13:38:08;9.80;99.90
43679;DHT22;29279;50.858;4.392;2022-11-21T13:40:38;9.80;99.90
43679;DHT22;29279;50.858;4.392;2022-11-21T13:43:26;10.00;99.90
43679;DHT22;29279;50.858;4.392;2022-11-21T13:45:52;10.10;99.90
43679;DHT22;29279;50.858;4.392;2022-11-21T13:56:35;10.20;99.90
43679;DHT22;29279;50.858;4.392;2022-11-21T14:05:00;9.90;99.90
43679;DHT22;29279;50.858;4.392;2022-11-21T14:07:35;10.00;99.90
43679;DHT22;29279;50.858;4.392;2022-11-21T14:12:51;9.90;99.90
43679;DHT22;29279;50.858;4.392;2022-11-21T14:15:32;10.00;99.90
43679;DHT22;29279;50.858;4.392;2022-11-21T14:18:00;10.00;99.90
43679;DHT22;29279;50.858;4.392;2022-11-21T14:20:47;9.90;99.90
43679;DHT22;29279;50.858;4.392;2022-11-21T14:28:23;9.80;99.90
43679;DHT22;29279;50.858;4.392;2022-11-21T14:31:02;9.70;99.90
43679;DHT22;29279;50.858;4.392;2022-11-21T14:33:38;9.80;99.90
43679;DHT22;29279;50.858;4.392;2022-11-21T14:46:27;9.70;99.90
43679;DHT22;29279;50.858;4.392;2022-11-21T14:48:53;9.60;99.90
43679;DHT22;29279;50.858;4.392;2022-11-21T14:51:22;9.60;99.90
43679;DHT22;29279;50.858;4.392;2022-11-21T14:53:50;9.60;99.90
43679;DHT22;29279;50.858;4.392;2022-11-21T14:56:26;9.60;99.90
43679;DHT22;29279;50.858;4.392;2022-11-21T14:58:54;9.60;99.90
43679;DHT22;29279;50.858;4.392;2022-11-21T15:01:23;9.60;99.90
43679;DHT22;29279;50.858;4.392;2022-11-21T15:04:00;9.70;99.90
43679;DHT22;29279;50.858;4.392;2022-11-21T15:06:27;9.70;99.90
43679;DHT22;29279;50.858;4.392;2022-11-21T15:08:55;9.80;99.90
43679;DHT22;29279;50.858;4.392;2022-11-21T15:11:29;9.70;99.90
43679;DHT22;29279;50.858;4.392;2022-11-21T15:14:02;9.70;99.90
43679;DHT22;29279;50.858;4.392;2022-11-21T15:16:30;9.60;99.90
43679;DHT22;29279;50.858;4.392;2022-11-21T15:18:56;9.50;99.90
43679;DHT22;29279;50.858;4.392;2022-11-21T15:21:21;9.60;99.90
43679;DHT22;29279;50.858;4.392;2022-11-21T15:23:47;9.60;99.90
43679;DHT22;29279;50.858;4.392;2022-11-21T15:26:31;9.50;99.90
43679;DHT22;29279;50.858;4.392;2022-11-21T15:28:59;9.60;99.90
43679;DHT22;29279;50.858;4.392;2022-11-21T15:31:25;9.60;99.90
43679;DHT22;29279;50.858;4.392;2022-11-21T15:33:58;9.60;99.90
43679;DHT22;29279;50.858;4.392;2022-11-21T15:36:24;9.60;99.90
43679;DHT22;29279;50.858;4.392;2022-11-21T15:41:34;9.50;99.90
43679;DHT22;29279;50.858;4.392;2022-11-21T15:46:35;9.50;99.90
43679;DHT22;29279;50.858;4.392;2022-11-21T15:49:08;9.50;99.90
43679;DHT22;29279;50.858;4.392;2022-11-21T15:51:39;9.60;99.90
43679;DHT22;29279;50.858;4.392;2022-11-21T15:54:08;9.60;99.90
43679;DHT22;29279;50.858;4.392;2022-11-21T15:56:34;9.60;99.90
43679;DHT22;29279;50.858;4.392;2022-11-21T15:59:00;9.60;99.90
43679;DHT22;29279;50.858;4.392;2022-11-21T16:01:28;9.60;99.90
43679;DHT22;29279;50.858;4.392;2022-11-21T16:03:59;9.50;99.90
43679;DHT22;29279;50.858;4.392;2022-11-21T16:06:26;9.50;99.90
43679;DHT22;29279;50.858;4.392;2022-11-21T16:08:52;9.50;99.90
43679;DHT22;29279;50.858;4.392;2022-11-21T16:11:22;9.50;99.90
43679;DHT22;29279;50.858;4.392;2022-11-21T16:13:59;9.50;99.90
43679;DHT22;29279;50.858;4.392;2022-11-21T16:16:31;9.60;99.90
43679;DHT22;29279;50.858;4.392;2022-11-21T16:18:57;9.60;99.90
43679;DHT22;29279;50.858;4.392;2022-11-21T16:21:23;9.60;99.90
43679;DHT22;29279;50.858;4.392;2022-11-21T16:23:49;9.50;99.90
43679;DHT22;29279;50.858;4.392;2022-11-21T16:26:15;9.60;99.90
43679;DHT22;29279;50.858;4.392;2022-11-21T16:28:41;9.50;99.90
43679;DHT22;29279;50.858;4.392;2022-11-21T16:31:17;9.60;99.90
43679;DHT22;29279;50.858;4.392;2022-11-21T16:33:43;9.50;99.90
43679;DHT22;29279;50.858;4.392;2022-11-21T16:36:09;9.60;99.90
43679;DHT22;29279;50.858;4.392;2022-11-21T16:38:34;9.50;99.90
43679;DHT22;29279;50.858;4.392;2022-11-21T16:41:02;9.40;99.90
43679;DHT22;29279;50.858;4.392;2022-11-21T16:43:30;9.40;99.90
43679;DHT22;29279;50.858;4.392;2022-11-21T16:46:06;9.40;99.90
43679;DHT22;29279;50.858;4.392;2022-11-21T16:48:32;9.20;99.90
43679;DHT22;29279;50.858;4.392;2022-11-21T16:51:14;9.20;99.90
43679;DHT22;29279;50.858;4.392;2022-11-21T16:53:40;9.20;99.90
43679;DHT22;29279;50.858;4.392;2022-11-21T16:56:06;9.10;99.90
43679;DHT22;29279;50.858;4.392;2022-11-21T16:58:33;9.00;99.90
43679;DHT22;29279;50.858;4.392;2022-11-21T17:01:16;9.10;99.90
43679;DHT22;29279;50.858;4.392;2022-11-21T17:03:43;9.10;99.90
43679;DHT22;29279;50.858;4.392;2022-11-21T17:06:10;9.00;99.90
43679;DHT22;29279;50.858;4.392;2022-11-21T17:08:36;9.00;99.90
43679;DHT22;29279;50.858;4.392;2022-11-21T17:11:14;9.00;99.90
43679;DHT22;29279;50.858;4.392;2022-11-21T17:13:40;8.90;99.90
43679;DHT22;29279;50.858;4.392;2022-11-21T17:16:08;9.00;99.90
43679;DHT22;29279;50.858;4.392;2022-11-21T17:18:34;9.00;99.90
43679;DHT22;29279;50.858;4.392;2022-11-21T17:21:03;9.00;99.90
43679;DHT22;29279;50.858;4.392;2022-11-21T17:23:32;8.90;99.90
43679;DHT22;29279;50.858;4.392;2022-11-21T17:26:05;8.80;99.90
43679;DHT22;29279;50.858;4.392;2022-11-21T17:28:32;8.90;99.90
43679;DHT22;29279;50.858;4.392;2022-11-21T17:30:58;8.90;99.90
43679;DHT22;29279;50.858;4.392;2022-11-21T17:33:24;8.90;99.90
43679;DHT22;29279;50.858;4.392;2022-11-21T17:35:50;8.90;99.90
43679;DHT22;29279;50.858;4.392;2022-11-21T17:38:16;8.90;99.90
43679;DHT22;29279;50.858;4.392;2022-11-21T17:40:42;8.90;99.90
43679;DHT22;29279;50.858;4.392;2022-11-21T17:43:08;8.90;99.90
43679;DHT22;29279;50.858;4.392;2022-11-21T17:45:34;8.80;99.90
43679;DHT22;29279;50.858;4.392;2022-11-21T17:47:59;8.80;99.90
43679;DHT22;29279;50.858;4.392;2022-11-21T17:50:25;8.90;99.90
43679;DHT22;29279;50.858;4.392;2022-11-21T17:52:51;8.80;99.90
43679;DHT22;29279;50.858;4.392;2022-11-21T17:55:17;8.80;99.90
43679;DHT22;29279;50.858;4.392;2022-11-21T17:57:44;8.90;99.90
43679;DHT22;29279;50.858;4.392;2022-11-21T18:00:10;8.90;99.90
43679;DHT22;29279;50.858;4.392;2022-11-21T18:02:35;8.90;99.90
43679;DHT22;29279;50.858;4.392;2022-11-21T18:05:01;8.90;99.90
43679;DHT22;29279;50.858;4.392;2022-11-21T18:07:27;8.70;99.90
43679;DHT22;29279;50.858;4.392;2022-11-21T18:09:54;8.80;99.90
43679;DHT22;29279;50.858;4.392;2022-11-21T18:12:20;8.70;99.90
43679;DHT22;29279;50.858;4.392;2022-11-21T18:14:45;8.70;99.90